sensor_id;sensor_type;location;lat;lon;timestamp;temperature;humidity
61351;DHT22;47119;49.130;9.218;2023-07-13T00:02:19;22.25;63.02
61351;DHT22;47119;49.130;9.218;2023-07-13T00:04:46;22.28;63.15
61351;DHT22;47119;49.130;9.218;2023-07-13T00:07:13;22.30;63.60
61351;DHT22;47119;49.130;9.218;2023-07-13T00:09:41;22.22;64.72
61351;DHT22;47119;49.130;9.218;2023-07-13T00:12:24;22.25;63.66
61351;DHT22;47119;49.130;9.218;2023-07-13T00:14:53;22.18;63.17
61351;DHT22;47119;49.130;9.218;2023-07-13T00:17:20;22.18;62.90
61351;DHT22;47119;49.130;9.218;2023-07-13T00:19:47;22.20;62.30
61351;DHT22;47119;49.130;9.218;2023-07-13T00:22:14;22.21;63.03
61351;DHT22;47119;49.130;9.218;2023-07-13T00:24:41;22.25;62.57
61351;DHT22;47119;49.130;9.218;2023-07-13T00:27:08;22.22;62.68
61351;DHT22;47119;49.130;9.218;2023-07-13T00:29:37;22.15;62.98
61351;DHT22;47119;49.130;9.218;2023-07-13T00:32:08;22.20;62.87
61351;DHT22;47119;49.130;9.218;2023-07-13T00:34:37;22.14;62.73
61351;DHT22;47119;49.130;9.218;2023-07-13T00:37:05;22.22;62.67
61351;DHT22;47119;49.130;9.218;2023-07-13T00:39:34;22.25;62.54
61351;DHT22;47119;49.130;9.218;2023-07-13T00:42:03;22.13;63.03
61351;DHT22;47119;49.130;9.218;2023-07-13T00:44:33;22.15;63.33
61351;DHT22;47119;49.130;9.218;2023-07-13T00:47:05;22.15;63.64
61351;DHT22;47119;49.130;9.218;2023-07-13T00:49:33;22.18;62.98
61351;DHT22;47119;49.130;9.218;2023-07-13T00:52:05;22.15;61.83
61351;DHT22;47119;49.130;9.218;2023-07-13T00:54:40;22.20;62.67
61351;DHT22;47119;49.130;9.218;2023-07-13T00:57:15;22.11;61.38
61351;DHT22;47119;49.130;9.218;2023-07-13T00:59:47;22.17;62.48
61351;DHT22;47119;49.130;9.218;2023-07-13T01:02:20;22.11;63.09
61351;DHT22;47119;49.130;9.218;2023-07-13T01:04:52;22.07;63.11
61351;DHT22;47119;49.130;9.218;2023-07-13T01:07:21;22.07;62.12
61351;DHT22;47119;49.130;9.218;2023-07-13T01:09:48;22.04;62.06
61351;DHT22;47119;49.130;9.218;2023-07-13T01:12:18;21.98;61.43
61351;DHT22;47119;49.130;9.218;2023-07-13T01:14:46;22.04;61.94
61351;DHT22;47119;49.130;9.218;2023-07-13T01:17:16;21.98;61.10
61351;DHT22;47119;49.130;9.218;2023-07-13T01:19:48;21.90;61.14
61351;DHT22;47119;49.130;9.218;2023-07-13T01:22:19;22.03;61.10
61351;DHT22;47119;49.130;9.218;2023-07-13T01:24:54;22.10;62.21
61351;DHT22;47119;49.130;9.218;2023-07-13T01:27:22;22.01;60.79
61351;DHT22;47119;49.130;9.218;2023-07-13T01:29:54;21.98;61.43
61351;DHT22;47119;49.130;9.218;2023-07-13T01:32:32;21.93;61.21
61351;DHT22;47119;49.130;9.218;2023-07-13T01:34:59;21.94;61.28
61351;DHT22;47119;49.130;9.218;2023-07-13T01:37:28;22.00;62.35
61351;DHT22;47119;49.130;9.218;2023-07-13T01:39:58;22.00;62.13
61351;DHT22;47119;49.130;9.218;2023-07-13T01:42:26;21.84;60.96
61351;DHT22;47119;49.130;9.218;2023-07-13T01:44:54;21.83;61.72
61351;DHT22;47119;49.130;9.218;2023-07-13T01:47:22;21.92;61.54
61351;DHT22;47119;49.130;9.218;2023-07-13T01:49:49;21.90;61.19
61351;DHT22;47119;49.130;9.218;2023-07-13T01:52:19;21.86;61.60
61351;DHT22;47119;49.130;9.218;2023-07-13T01:54:50;21.83;61.15
61351;DHT22;47119;49.130;9.218;2023-07-13T01:57:19;21.92;61.55
61351;DHT22;47119;49.130;9.218;2023-07-13T02:00:18;21.93;61.47
61351;DHT22;47119;49.130;9.218;2023-07-13T02:02:48;21.98;61.77
61351;DHT22;47119;49.130;9.218;2023-07-13T02:05:15;21.94;61.23
61351;DHT22;47119;49.130;9.218;2023-07-13T02:07:43;21.87;61.19
61351;DHT22;47119;49.130;9.218;2023-07-13T02:10:13;21.90;61.62
61351;DHT22;47119;49.130;9.218;2023-07-13T02:12:43;21.90;60.90
61351;DHT22;47119;49.130;9.218;2023-07-13T02:15:11;21.93;61.79
61351;DHT22;47119;49.130;9.218;2023-07-13T02:17:38;21.86;61.60
61351;DHT22;47119;49.130;9.218;2023-07-13T02:20:06;21.90;61.97
61351;DHT22;47119;49.130;9.218;2023-07-13T02:22:35;21.83;60.87
61351;DHT22;47119;49.130;9.218;2023-07-13T02:25:07;21.79;61.74
61351;DHT22;47119;49.130;9.218;2023-07-13T02:27:38;21.80;61.10
61351;DHT22;47119;49.130;9.218;2023-07-13T02:30:06;21.87;61.89
61351;DHT22;47119;49.130;9.218;2023-07-13T02:32:34;21.90;62.10
61351;DHT22;47119;49.130;9.218;2023-07-13T02:35:01;21.94;62.11
61351;DHT22;47119;49.130;9.218;2023-07-13T02:37:29;21.93;61.58
61351;DHT22;47119;49.130;9.218;2023-07-13T02:39:59;21.87;62.07
61351;DHT22;47119;49.130;9.218;2023-07-13T02:42:29;21.82;61.53
61351;DHT22;47119;49.130;9.218;2023-07-13T02:45:04;21.73;61.55
61351;DHT22;47119;49.130;9.218;2023-07-13T02:47:34;21.73;61.48
61351;DHT22;47119;49.130;9.218;2023-07-13T02:50:02;21.69;61.16
61351;DHT22;47119;49.130;9.218;2023-07-13T02:52:30;21.76;61.68
61351;DHT22;47119;49.130;9.218;2023-07-13T02:54:58;21.84;61.72
61351;DHT22;47119;49.130;9.218;2023-07-13T02:57:27;21.65;60.98
61351;DHT22;47119;49.130;9.218;2023-07-13T02:59:57;21.41;61.31
61351;DHT22;47119;49.130;9.218;2023-07-13T03:02:26;21.57;61.60
61351;DHT22;47119;49.130;9.218;2023-07-13T03:04:54;21.57;62.02
61351;DHT22;47119;49.130;9.218;2023-07-13T03:07:22;21.55;61.23
61351;DHT22;47119;49.130;9.218;2023-07-13T03:09:54;21.67;61.32
61351;DHT22;47119;49.130;9.218;2023-07-13T03:12:23;21.49;61.46
61351;DHT22;47119;49.130;9.218;2023-07-13T03:14:52;21.35;61.71
61351;DHT22;47119;49.130;9.218;2023-07-13T03:17:19;21.36;61.46
61351;DHT22;47119;49.130;9.218;2023-07-13T03:19:50;21.39;61.49
61351;DHT22;47119;49.130;9.218;2023-07-13T03:22:18;21.28;61.41
61351;DHT22;47119;49.130;9.218;2023-07-13T03:24:45;21.26;61.51
61351;DHT22;47119;49.130;9.218;2023-07-13T03:27:15;21.31;61.31
61351;DHT22;47119;49.130;9.218;2023-07-13T03:29:44;21.25;61.26
61351;DHT22;47119;49.130;9.218;2023-07-13T03:32:13;21.26;61.41
61351;DHT22;47119;49.130;9.218;2023-07-13T03:34:40;21.29;61.30
61351;DHT22;47119;49.130;9.218;2023-07-13T03:37:09;21.32;61.13
61351;DHT22;47119;49.130;9.218;2023-07-13T03:39:37;21.31;61.16
61351;DHT22;47119;49.130;9.218;2023-07-13T03:42:07;21.45;60.97
61351;DHT22;47119;49.130;9.218;2023-07-13T03:44:34;21.39;61.13
61351;DHT22;47119;49.130;9.218;2023-07-13T03:47:03;21.42;61.27
61351;DHT22;47119;49.130;9.218;2023-07-13T03:49:36;21.38;61.46
61351;DHT22;47119;49.130;9.218;2023-07-13T03:52:04;21.32;61.83
61351;DHT22;47119;49.130;9.218;2023-07-13T03:54:33;21.22;62.09
61351;DHT22;47119;49.130;9.218;2023-07-13T03:57:01;21.08;61.61
61351;DHT22;47119;49.130;9.218;2023-07-13T03:59:31;21.26;61.81
61351;DHT22;47119;49.130;9.218;2023-07-13T04:02:01;21.22;61.32
61351;DHT22;47119;49.130;9.218;2023-07-13T04:04:32;21.11;61.90
61351;DHT22;47119;49.130;9.218;2023-07-13T04:07:00;21.21;61.76
61351;DHT22;47119;49.130;9.218;2023-07-13T04:09:27;21.25;61.76
61351;DHT22;47119;49.130;9.218;2023-07-13T04:11:55;21.24;61.01
61351;DHT22;47119;49.130;9.218;2023-07-13T04:14:22;21.22;61.46
61351;DHT22;47119;49.130;9.218;2023-07-13T04:16:49;21.28;61.60
61351;DHT22;47119;49.130;9.218;2023-07-13T04:19:17;21.31;61.58
61351;DHT22;47119;49.130;9.218;2023-07-13T04:21:44;21.36;62.08
61351;DHT22;47119;49.130;9.218;2023-07-13T04:24:11;21.47;63.90
61351;DHT22;47119;49.130;9.218;2023-07-13T04:26:38;21.36;60.85
61351;DHT22;47119;49.130;9.218;2023-07-13T04:29:07;21.16;61.70
61351;DHT22;47119;49.130;9.218;2023-07-13T04:31:34;21.14;61.71
61351;DHT22;47119;49.130;9.218;2023-07-13T04:34:02;21.02;61.28
61351;DHT22;47119;49.130;9.218;2023-07-13T04:36:29;21.06;61.06
61351;DHT22;47119;49.130;9.218;2023-07-13T04:39:03;21.22;61.41
61351;DHT22;47119;49.130;9.218;2023-07-13T04:41:30;21.38;61.54
61351;DHT22;47119;49.130;9.218;2023-07-13T04:43:59;21.31;60.57
61351;DHT22;47119;49.130;9.218;2023-07-13T04:46:29;21.16;60.83
61351;DHT22;47119;49.130;9.218;2023-07-13T04:48:57;21.12;61.29
61351;DHT22;47119;49.130;9.218;2023-07-13T04:51:26;21.12;61.04
61351;DHT22;47119;49.130;9.218;2023-07-13T04:53:53;21.18;61.06
61351;DHT22;47119;49.130;9.218;2023-07-13T04:56:23;21.22;60.89
61351;DHT22;47119;49.130;9.218;2023-07-13T04:58:50;21.26;61.14
61351;DHT22;47119;49.130;9.218;2023-07-13T05:01:17;21.35;61.41
61351;DHT22;47119;49.130;9.218;2023-07-13T05:03:47;21.41;60.61
61351;DHT22;47119;49.130;9.218;2023-07-13T05:06:14;21.35;61.05
61351;DHT22;47119;49.130;9.218;2023-07-13T05:08:43;21.22;60.83
61351;DHT22;47119;49.130;9.218;2023-07-13T05:11:10;21.15;60.84
61351;DHT22;47119;49.130;9.218;2023-07-13T05:13:37;21.08;60.87
61351;DHT22;47119;49.130;9.218;2023-07-13T05:16:06;21.11;61.08
61351;DHT22;47119;49.130;9.218;2023-07-13T11:46:29;22.40;50.82
61351;DHT22;47119;49.130;9.218;2023-07-13T12:36:05;22.48;54.46
61351;DHT22;47119;49.130;9.218;2023-07-13T12:38:33;22.47;50.09
61351;DHT22;47119;49.130;9.218;2023-07-13T12:41:01;22.40;51.18
61351;DHT22;47119;49.130;9.218;2023-07-13T12:43:33;22.51;51.07
61351;DHT22;47119;49.130;9.218;2023-07-13T12:46:17;22.55;49.78
61351;DHT22;47119;49.130;9.218;2023-07-13T12:48:49;22.51;51.64
61351;DHT22;47119;49.130;9.218;2023-07-13T12:51:21;22.41;55.04
61351;DHT22;47119;49.130;9.218;2023-07-13T12:53:57;22.41;55.36
61351;DHT22;47119;49.130;9.218;2023-07-13T12:56:33;22.56;50.54
61351;DHT22;47119;49.130;9.218;2023-07-13T12:59:02;22.55;52.09
61351;DHT22;47119;49.130;9.218;2023-07-13T13:01:34;22.56;51.95
61351;DHT22;47119;49.130;9.218;2023-07-13T13:04:03;22.69;50.71
61351;DHT22;47119;49.130;9.218;2023-07-13T13:06:33;22.59;51.44
61351;DHT22;47119;49.130;9.218;2023-07-13T13:09:03;22.68;50.90
61351;DHT22;47119;49.130;9.218;2023-07-13T13:11:36;22.61;52.18
61351;DHT22;47119;49.130;9.218;2023-07-13T13:14:05;22.59;51.05
61351;DHT22;47119;49.130;9.218;2023-07-13T13:16:34;22.56;52.69
61351;DHT22;47119;49.130;9.218;2023-07-13T13:19:20;22.68;50.46
61351;DHT22;47119;49.130;9.218;2023-07-13T13:21:53;22.63;50.05
61351;DHT22;47119;49.130;9.218;2023-07-13T14:42:17;22.68;51.82
61351;DHT22;47119;49.130;9.218;2023-07-13T20:54:12;22.13;57.81
61351;DHT22;47119;49.130;9.218;2023-07-13T20:56:58;22.11;59.04
61351;DHT22;47119;49.130;9.218;2023-07-13T21:03:25;22.11;58.59
61351;DHT22;47119;49.130;9.218;2023-07-13T21:06:19;22.08;58.21
61351;DHT22;47119;49.130;9.218;2023-07-13T21:09:05;22.08;58.34
61351;DHT22;47119;49.130;9.218;2023-07-13T21:12:36;22.05;56.30
61351;DHT22;47119;49.130;9.218;2023-07-13T21:15:07;22.10;58.71
61351;DHT22;47119;49.130;9.218;2023-07-13T21:17:42;22.04;57.27
61351;DHT22;47119;49.130;9.218;2023-07-13T21:20:24;22.03;58.15
61351;DHT22;47119;49.130;9.218;2023-07-13T22:18:23;21.73;57.08
61351;DHT22;47119;49.130;9.218;2023-07-13T22:47:19;21.59;56.58
61351;DHT22;47119;49.130;9.218;2023-07-13T22:49:53;21.65;57.81
61351;DHT22;47119;49.130;9.218;2023-07-13T22:57:27;21.62;57.02
61351;DHT22;47119;49.130;9.218;2023-07-13T23:02:08;21.57;56.53
61351;DHT22;47119;49.130;9.218;2023-07-13T23:09:47;21.42;56.90
61351;DHT22;47119;49.130;9.218;2023-07-13T23:16:44;21.42;57.46
61351;DHT22;47119;49.130;9.218;2023-07-13T23:19:35;21.39;57.68
61351;DHT22;47119;49.130;9.218;2023-07-13T23:22:49;21.36;57.89
61351;DHT22;47119;49.130;9.218;2023-07-13T23:25:19;21.36;58.12
61351;DHT22;47119;49.130;9.218;2023-07-13T23:27:53;21.38;58.08
61351;DHT22;47119;49.130;9.218;2023-07-13T23:30:25;21.38;58.20
61351;DHT22;47119;49.130;9.218;2023-07-13T23:33:03;21.35;58.44
61351;DHT22;47119;49.130;9.218;2023-07-13T23:35:57;21.38;58.46
61351;DHT22;47119;49.130;9.218;2023-07-13T23:38:33;21.36;58.44
61351;DHT22;47119;49.130;9.218;2023-07-13T23:41:09;21.31;58.68
61351;DHT22;47119;49.130;9.218;2023-07-13T23:43:38;21.28;58.39
61351;DHT22;47119;49.130;9.218;2023-07-13T23:46:20;21.28;58.51
61351;DHT22;47119;49.130;9.218;2023-07-13T23:48:52;21.25;58.65
61351;DHT22;47119;49.130;9.218;2023-07-13T23:51:26;21.28;58.92
61351;DHT22;47119;49.130;9.218;2023-07-13T23:53:55;21.26;58.81
61351;DHT22;47119;49.130;9.218;2023-07-13T23:56:26;21.21;58.77
61351;DHT22;47119;49.130;9.218;2023-07-13T23:58:54;21.29;58.94
